Time;durP1;ratioP1;P1;durP2;ratioP2;P2;SDS_P1;SDS_P2;PMS_P1;PMS_P2;Temp;Humidity;BMP_temperature;BMP_pressure;BME280_temperature;BME280_humidity;BME280_pressure;Samples;Min_cycle;Max_cycle;Signal;HPM_P1;HPM_P2
2021/06/10 00:02:25;;;;;;;15.43;9.20;;;16.60;99.90;;;;;;5012474;28;20453;-77
2021/06/10 00:04:51;;;;;;;12.13;9.00;;;16.50;99.90;;;;;;5013528;28;20778;-77
2021/06/10 00:07:20;;;;;;;11.93;8.60;;;16.50;99.90;;;;;;5013832;28;20394;-75
2021/06/10 00:09:49;;;;;;;9.40;8.50;;;16.50;99.90;;;;;;5013683;28;20434;-77
2021/06/10 00:12:18;;;;;;;16.37;10.93;;;16.40;99.90;;;;;;5013640;28;20464;-77
2021/06/10 00:14:45;;;;;;;10.20;8.70;;;16.30;99.90;;;;;;5013433;28;20946;-77
2021/06/10 00:17:11;;;;;;;10.70;9.60;;;16.20;99.90;;;;;;5013602;28;20426;-77
2021/06/10 00:19:37;;;;;;;9.07;8.17;;;16.10;99.90;;;;;;5017739;28;20387;-75
2021/06/10 00:22:03;;;;;;;13.20;9.33;;;16.10;99.90;;;;;;5013531;28;20671;-77
2021/06/10 00:24:53;;;;;;;;;;;;;;;;;;;;;
2021/06/10 00:30:50;;;;;;;8.80;7.90;;;16.10;99.90;;;;;;5027239;28;20452;-77
2021/06/10 00:36:55;;;;;;;8.80;7.90;;;16.00;99.90;;;;;;5047196;23;20483;-77
2021/06/10 00:55:42;;;;;;;7.93;7.10;;;15.90;99.90;;;;;;5025285;23;20650;-77
2021/06/10 01:18:47;;;;;;;10.60;7.80;;;15.80;99.90;;;;;;5033744;28;20782;-77
2021/06/10 03:09:35;;;;;;;9.27;7.37;;;14.80;99.90;;;;;;4484180;26;21041;-76
2021/06/10 03:12:44;;;;;;;10.07;7.17;;;14.80;99.90;;;;;;4975256;28;20485;-76
2021/06/10 03:15:11;;;;;;;9.00;8.10;;;14.80;99.90;;;;;;4998404;23;20483;-76
2021/06/10 03:17:38;;;;;;;10.43;7.23;;;14.70;99.90;;;;;;4975362;28;20463;-76
2021/06/10 03:20:07;;;;;;;9.80;7.17;;;14.70;99.90;;;;;;4975167;28;20452;-76
2021/06/10 03:22:34;;;;;;;8.10;7.40;;;14.60;99.90;;;;;;4973709;28;20459;-76
2021/06/10 04:05:35;;;;;;;10.80;9.80;;;14.30;99.90;;;;;;5317427;22;20510;-77
2021/06/10 04:09:05;;;;;;;11.40;10.20;;;14.20;99.90;;;;;;5033305;28;20421;-77
2021/06/10 04:11:49;;;;;;;11.23;10.10;;;14.20;99.90;;;;;;5033038;28;20441;-77
2021/06/10 04:21:33;;;;;;;11.80;10.60;;;14.30;99.90;;;;;;5014065;28;20511;-78
2021/06/10 04:24:28;;;;;;;11.30;9.60;;;14.20;99.90;;;;;;5036715;22;20484;-77
2021/06/10 04:30:51;;;;;;;10.97;9.97;;;14.30;99.90;;;;;;5032795;28;20420;-77
2021/06/10 04:34:04;;;;;;;11.20;10.20;;;14.30;99.90;;;;;;5032296;28;20907;-77
2021/06/10 04:36:47;;;;;;;11.40;10.30;;;14.30;99.90;;;;;;5035780;28;20399;-78
2021/06/10 04:49:46;;;;;;;11.27;10.27;;;14.60;99.90;;;;;;5037173;28;20435;-78
2021/06/10 05:02:40;;;;;;;;;;;;;;;;;;;;;
2021/06/10 05:05:27;;;;;;;11.37;10.20;;;15.00;99.90;;;;;;5014048;22;20493;-77
2021/06/10 05:08:29;;;;;;;11.00;10.07;;;15.10;99.90;;;;;;4977462;28;20818;-77
2021/06/10 05:11:15;;;;;;;14.10;10.77;;;15.10;99.90;;;;;;4977450;28;20423;-77
2021/06/10 05:14:01;;;;;;;12.03;10.80;;;15.10;99.90;;;;;;4962326;28;20444;-77
2021/06/10 05:16:34;;;;;;;10.50;9.37;;;15.20;99.90;;;;;;4976388;28;20404;-78
2021/06/10 05:19:19;;;;;;;12.60;11.30;;;15.30;99.90;;;;;;4977324;28;20374;-77
2021/06/10 05:21:50;;;;;;;12.00;10.70;;;15.40;99.90;;;;;;4977273;28;20406;-80
2021/06/10 05:24:23;;;;;;;14.83;10.03;;;15.50;99.90;;;;;;4975416;28;20501;-78
2021/06/10 05:27:33;;;;;;;11.07;10.00;;;15.60;99.90;;;;;;4976195;28;20892;-78
2021/06/10 05:29:59;;;;;;;10.77;9.67;;;15.60;99.90;;;;;;4976838;28;20883;-78
2021/06/10 05:32:27;;;;;;;10.80;9.17;;;15.80;99.90;;;;;;4977140;28;20472;-78
2021/06/10 05:34:53;;;;;;;11.50;10.20;;;15.80;99.90;;;;;;4976666;28;20409;-78
2021/06/10 05:37:18;;;;;;;10.03;9.00;;;15.90;99.90;;;;;;4976902;28;20424;-78
2021/06/10 05:39:44;;;;;;;10.70;9.70;;;16.00;99.90;;;;;;4976993;28;20664;-78
2021/06/10 05:42:10;;;;;;;10.60;9.50;;;16.00;99.90;;;;;;4976624;28;20187;-78
2021/06/10 05:44:36;;;;;;;10.47;9.37;;;16.10;99.90;;;;;;4974800;28;20219;-78
2021/06/10 05:47:01;;;;;;;10.40;9.27;;;16.30;99.90;;;;;;4976799;28;20394;-78
2021/06/10 05:49:27;;;;;;;11.47;9.40;;;16.40;99.90;;;;;;4976616;28;20539;-78
2021/06/10 05:51:53;;;;;;;12.83;9.70;;;16.40;99.90;;;;;;4976748;28;20664;-78
2021/06/10 05:54:18;;;;;;;10.70;9.70;;;16.40;99.90;;;;;;4975993;28;20262;-78
2021/06/10 05:56:44;;;;;;;10.47;9.43;;;16.50;99.90;;;;;;4976524;28;20255;-78
2021/06/10 05:59:10;;;;;;;10.67;9.43;;;16.60;99.90;;;;;;4976563;28;20180;-77
2021/06/10 06:01:35;;;;;;;10.40;9.20;;;16.70;99.90;;;;;;4976542;28;20646;-77
2021/06/10 06:04:01;;;;;;;12.00;7.87;;;16.70;99.90;;;;;;4975099;28;20712;-77
2021/06/10 06:06:26;;;;;;;9.90;8.67;;;16.80;99.90;;;;;;4976362;28;20188;-77
2021/06/10 06:08:52;;;;;;;9.83;8.80;;;16.90;99.90;;;;;;4976462;28;20645;-77
2021/06/10 06:11:19;;;;;;;9.37;8.10;;;16.90;99.90;;;;;;4976376;28;20258;-77
2021/06/10 06:13:47;;;;;;;9.83;8.50;;;17.00;99.90;;;;;;4975999;28;20215;-77
2021/06/10 06:16:18;;;;;;;10.00;9.00;;;17.20;99.90;;;;;;4976336;28;20427;-77
2021/06/10 06:18:44;;;;;;;9.33;8.43;;;17.30;99.90;;;;;;4976239;28;20382;-77
2021/06/10 06:21:11;;;;;;;9.17;7.13;;;17.40;99.90;;;;;;4976218;28;20415;-77
2021/06/10 06:23:36;;;;;;;8.50;7.73;;;17.40;99.90;;;;;;4975632;28;20521;-77
2021/06/10 06:26:03;;;;;;;9.90;7.90;;;17.50;99.90;;;;;;4976060;28;20390;-77
2021/06/10 06:28:28;;;;;;;9.50;8.60;;;17.50;99.90;;;;;;4976074;28;20299;-77
2021/06/10 06:30:54;;;;;;;9.03;8.13;;;17.60;99.90;;;;;;4975594;28;20477;-77
2021/06/10 06:33:20;;;;;;;9.67;7.87;;;17.70;99.90;;;;;;4975227;28;20267;-77
2021/06/10 06:35:46;;;;;;;7.80;7.10;;;17.90;99.90;;;;;;4975831;28;20192;-77
2021/06/10 06:38:12;;;;;;;8.00;7.30;;;17.80;99.90;;;;;;4976037;28;20188;-77
2021/06/10 06:40:38;;;;;;;7.37;6.60;;;18.00;99.90;;;;;;4975866;28;20420;-77
2021/06/10 06:43:06;;;;;;;7.30;6.60;;;18.00;99.90;;;;;;4975632;28;20852;-77
2021/06/10 06:49:09;;;;;;;9.60;6.83;;;18.20;99.90;;;;;;3173208;26;20558;-77
2021/06/10 06:52:27;;;;;;;9.37;6.23;;;18.50;99.90;;;;;;4973297;28;20430;-77
2021/06/10 06:55:52;;;;;;;7.83;6.37;;;18.60;99.90;;;;;;4972860;28;20455;-77
2021/06/10 06:59:11;;;;;;;9.53;6.37;;;18.70;99.90;;;;;;4934784;29;20437;-77
2021/06/10 07:01:44;;;;;;;6.00;5.40;;;18.90;99.90;;;;;;4972823;28;20470;-78
2021/06/10 07:04:18;;;;;;;7.10;4.83;;;19.00;99.90;;;;;;4946651;29;20599;-77
2021/06/10 07:07:17;;;;;;;7.80;5.50;;;19.30;99.90;;;;;;4980251;28;20401;-77
2021/06/10 07:09:51;;;;;;;5.53;4.50;;;19.50;99.90;;;;;;4994531;28;20469;-77
2021/06/10 07:12:48;;;;;;;6.83;4.13;;;19.60;99.90;;;;;;4994822;28;20373;-78
2021/06/10 07:21:10;;;;;;;4.97;4.47;;;19.90;99.90;;;;;;4996411;28;21009;-77
2021/06/10 07:23:36;;;;;;;4.93;4.43;;;20.00;99.90;;;;;;4972647;28;20474;-78
2021/06/10 07:26:04;;;;;;;9.10;4.27;;;20.10;99.90;;;;;;4973136;28;20416;-77
2021/06/10 07:31:53;;;;;;;7.60;4.47;;;20.10;99.90;;;;;;4973393;28;20454;-77
2021/06/10 07:34:36;;;;;;;10.00;4.70;;;20.20;99.90;;;;;;4974648;28;20450;-77
2021/06/10 07:37:32;;;;;;;10.27;5.00;;;20.40;99.90;;;;;;4974765;28;20443;-77
2021/06/10 07:40:14;;;;;;;5.53;4.20;;;20.40;99.90;;;;;;4975094;28;20418;-77
2021/06/10 07:42:45;;;;;;;7.80;5.77;;;20.60;99.90;;;;;;4974829;28;20429;-77
2021/06/10 07:45:11;;;;;;;7.73;5.50;;;20.90;99.90;;;;;;4974562;28;20444;-77
2021/06/10 07:47:39;;;;;;;9.63;6.47;;;21.20;99.90;;;;;;4974708;28;20475;-78
2021/06/10 07:50:08;;;;;;;7.00;4.20;;;21.30;99.90;;;;;;4974673;28;20904;-77
2021/06/10 07:53:12;;;;;;;;;;;;;;;;;;;;;
2021/06/10 07:56:26;;;;;;;4.20;2.83;;;21.10;99.90;;;;;;4974776;28;20370;-77
2021/06/10 07:58:52;;;;;;;3.50;2.97;;;21.30;99.90;;;;;;4953299;29;20921;-78
2021/06/10 08:01:20;;;;;;;5.43;3.90;;;21.50;99.90;;;;;;4972024;28;20435;-77
2021/06/10 08:03:47;;;;;;;4.80;3.40;;;21.60;99.90;;;;;;4974315;28;20216;-77
2021/06/10 08:06:13;;;;;;;5.10;3.10;;;21.60;99.90;;;;;;4974450;28;20755;-79
2021/06/10 08:08:39;;;;;;;5.60;3.83;;;22.00;99.90;;;;;;4973785;28;20462;-79
2021/06/10 08:11:09;;;;;;;11.30;4.80;;;22.30;99.90;;;;;;4974429;28;20180;-82
2021/06/10 08:13:35;;;;;;;4.37;3.60;;;22.40;99.90;;;;;;4988457;28;20565;-79
2021/06/10 08:16:01;;;;;;;6.80;4.20;;;22.60;99.90;;;;;;4989328;28;20420;-79
2021/06/10 08:18:28;;;;;;;5.40;4.17;;;22.90;99.90;;;;;;4974366;28;20935;-79
2021/06/10 08:20:55;;;;;;;7.17;4.33;;;23.00;99.90;;;;;;4989095;28;20219;-79
2021/06/10 08:23:21;;;;;;;4.20;3.80;;;23.30;99.90;;;;;;4973863;28;20888;-80
2021/06/10 08:25:47;;;;;;;6.03;3.93;;;23.30;99.90;;;;;;4974391;28;20444;-79
2021/06/10 08:28:13;;;;;;;5.77;3.50;;;23.50;99.90;;;;;;4989312;28;20191;-78
2021/06/10 08:30:39;;;;;;;5.70;3.47;;;23.60;99.90;;;;;;4989297;28;20223;-79
2021/06/10 08:33:05;;;;;;;3.27;2.97;;;23.90;99.90;;;;;;4974010;28;20428;-79
2021/06/10 08:35:32;;;;;;;5.00;3.27;;;23.70;99.90;;;;;;4972803;28;20948;-78
2021/06/10 08:37:58;;;;;;;4.87;3.27;;;23.40;99.90;;;;;;4974287;28;20944;-78
2021/06/10 08:40:24;;;;;;;5.13;3.40;;;23.70;99.90;;;;;;4974239;28;20788;-78
2021/06/10 08:42:50;;;;;;;6.10;3.30;;;23.30;99.90;;;;;;4973892;28;20479;-76
2021/06/10 08:45:18;;;;;;;3.43;3.13;;;23.90;99.90;;;;;;4972683;28;20258;-80
2021/06/10 08:47:47;;;;;;;11.77;3.30;;;23.80;99.90;;;;;;4974073;28;20653;-79
2021/06/10 08:50:18;;;;;;;8.83;3.70;;;24.00;99.90;;;;;;4972765;28;20420;-79
2021/06/10 08:52:44;;;;;;;5.30;2.97;;;24.50;99.90;;;;;;4973861;28;20419;-80
2021/06/10 08:55:12;;;;;;;4.03;3.63;;;24.80;99.90;;;;;;4973824;28;20521;-78
2021/06/10 08:57:38;;;;;;;5.00;3.10;;;25.00;99.90;;;;;;4988864;28;20510;-78
2021/06/10 09:00:05;;;;;;;4.33;3.03;;;24.80;99.90;;;;;;4972886;28;20427;-76
2021/06/10 09:02:31;;;;;;;4.67;3.00;;;24.90;99.90;;;;;;4988788;28;20886;-77
2021/06/10 09:05:07;;;;;;;4.70;3.33;;;25.00;99.90;;;;;;4973654;28;20428;-78
2021/06/10 09:07:35;;;;;;;6.63;4.07;;;25.60;99.90;;;;;;4973947;28;20172;-81
2021/06/10 09:10:03;;;;;;;6.23;3.50;;;25.10;99.90;;;;;;4973905;28;20415;-78
2021/06/10 09:12:35;;;;;;;5.87;3.70;;;24.80;99.90;;;;;;4973812;28;20466;-79
2021/06/10 09:15:03;;;;;;;9.10;4.13;;;25.00;99.90;;;;;;4973518;28;20431;-79
2021/06/10 09:17:34;;;;;;;9.73;3.70;;;25.20;99.90;;;;;;4973984;28;20411;-79
2021/06/10 09:20:02;;;;;;;6.33;3.73;;;25.70;99.90;;;;;;4975855;28;20510;-79
2021/06/10 09:22:33;;;;;;;10.20;4.50;;;25.70;99.90;;;;;;4977410;28;20478;-77
2021/06/10 09:25:08;;;;;;;5.50;3.13;;;26.40;99.90;;;;;;4976841;28;20474;-75
2021/06/10 09:27:34;;;;;;;14.77;4.60;;;26.70;99.90;;;;;;4977045;28;20430;-78
2021/06/10 09:30:00;;;;;;;5.43;3.50;;;26.80;99.90;;;;;;4975751;28;20431;-79
2021/06/10 09:32:32;;;;;;;3.20;2.80;;;27.40;99.90;;;;;;4977265;28;20424;-76
2021/06/10 09:35:02;;;;;;;5.93;3.50;;;27.70;99.90;;;;;;4976722;28;20501;-75
2021/06/10 09:37:38;;;;;;;4.10;3.70;;;26.70;99.90;;;;;;4976955;28;20832;-75
2021/06/10 09:40:11;;;;;;;6.93;3.63;;;26.40;99.90;;;;;;4976769;28;20426;-79
2021/06/10 09:42:38;;;;;;;5.33;3.50;;;27.00;99.90;;;;;;4976828;28;20820;-80
2021/06/10 09:45:06;;;;;;;4.13;3.00;;;26.80;99.90;;;;;;4976493;28;20534;-79
2021/06/10 09:47:41;;;;;;;4.30;3.10;;;26.10;99.90;;;;;;4976789;28;20940;-79
2021/06/10 09:50:26;;;;;;;4.50;3.13;;;26.60;99.90;;;;;;4976600;28;20418;-77
2021/06/10 09:53:17;;;;;;;3.23;2.87;;;26.40;99.90;;;;;;4976541;28;20446;-79
2021/06/10 09:56:09;;;;;;;6.47;2.90;;;26.70;99.90;;;;;;4976764;28;20423;-80
2021/06/10 09:58:39;;;;;;;4.10;2.70;;;27.10;99.90;;;;;;4976514;28;20419;-78
2021/06/10 10:01:20;;;;;;;7.40;3.03;;;27.50;99.90;;;;;;4976843;28;20430;-76
2021/06/10 10:03:48;;;;;;;3.83;2.63;;;27.50;99.90;;;;;;4976121;28;20463;-75
2021/06/10 10:06:26;;;;;;;6.30;3.53;;;27.00;99.90;;;;;;4976422;28;20408;-77
2021/06/10 10:08:53;;;;;;;4.13;3.23;;;26.90;99.90;;;;;;4976753;28;20396;-78
2021/06/10 10:11:20;;;;;;;6.40;3.30;;;26.70;99.90;;;;;;4977745;28;20835;-79
2021/06/10 10:13:48;;;;;;;4.77;2.47;;;27.00;99.90;;;;;;4995339;28;20450;-79
2021/06/10 10:16:15;;;;;;;3.43;2.70;;;26.60;99.90;;;;;;5009946;28;20427;-77
2021/06/10 10:18:43;;;;;;;4.70;2.37;;;26.50;99.90;;;;;;4995960;28;20418;-78
2021/06/10 10:21:08;;;;;;;5.27;2.53;;;26.80;99.90;;;;;;4995472;28;20443;-78
2021/06/10 10:23:35;;;;;;;4.30;2.90;;;26.40;99.90;;;;;;4995192;28;20467;-78
2021/06/10 10:26:03;;;;;;;3.90;3.13;;;26.50;99.90;;;;;;4995598;28;20255;-79
2021/06/10 10:28:34;;;;;;;4.23;3.10;;;27.20;99.90;;;;;;4978429;28;20429;-77
2021/06/10 10:31:03;;;;;;;6.97;3.10;;;26.70;99.90;;;;;;4996063;28;20415;-77
2021/06/10 10:33:29;;;;;;;4.47;2.93;;;27.60;99.90;;;;;;4996850;28;20439;-77
2021/06/10 10:35:57;;;;;;;4.73;2.80;;;28.30;99.90;;;;;;4997806;28;20418;-76
2021/06/10 10:38:29;;;;;;;5.10;2.77;;;28.40;99.90;;;;;;4995323;28;20454;-75
2021/06/10 10:40:59;;;;;;;7.23;2.20;;;28.80;99.90;;;;;;4994267;28;20434;-77
2021/06/10 10:43:26;;;;;;;2.70;2.40;;;27.70;99.90;;;;;;4995116;28;20461;-80
2021/06/10 10:46:17;;;;;;;4.27;2.77;;;27.80;99.90;;;;;;4993995;28;20422;-78
2021/06/10 10:48:45;;;;;;;3.67;2.70;;;27.10;99.90;;;;;;4989669;28;20462;-79
2021/06/10 10:51:33;;;;;;;6.03;2.37;;;26.30;99.90;;;;;;5010777;28;20769;-78
2021/06/10 10:54:00;;;;;;;3.57;2.50;;;26.20;99.90;;;;;;4994693;28;20442;-78
2021/06/10 10:56:40;;;;;;;3.77;2.30;;;26.70;99.90;;;;;;4995001;28;20414;-79
2021/06/10 10:59:16;;;;;;;2.83;2.47;;;27.10;99.90;;;;;;4995198;28;20782;-78
2021/06/10 11:02:00;;;;;;;3.27;3.00;;;27.20;99.90;;;;;;4995042;28;20450;-79
2021/06/10 11:04:52;;;;;;;2.57;2.20;;;27.50;99.90;;;;;;4994643;28;20613;-79
2021/06/10 11:07:50;;;;;;;4.07;2.53;;;27.10;99.90;;;;;;4994864;28;20415;-78
2021/06/10 11:10:49;;;;;;;3.00;1.90;;;27.30;99.90;;;;;;4986653;28;20765;-79
2021/06/10 11:13:17;;;;;;;3.17;1.93;;;27.60;99.90;;;;;;4989819;28;20505;-79
2021/06/10 11:15:42;;;;;;;3.20;2.30;;;28.00;99.90;;;;;;4994710;28;20438;-79
2021/06/10 11:18:08;;;;;;;5.00;2.10;;;28.70;99.90;;;;;;4994722;28;20969;-78
2021/06/10 11:20:36;;;;;;;4.30;2.17;;;29.00;99.90;;;;;;4994400;28;20200;-78
2021/06/10 11:23:25;;;;;;;3.40;2.90;;;28.60;99.90;;;;;;4994315;28;20918;-78
2021/06/10 11:25:52;;;;;;;7.00;2.40;;;28.90;99.90;;;;;;4994677;28;20445;-78
2021/06/10 11:28:26;;;;;;;3.30;2.30;;;29.20;99.90;;;;;;4994386;28;20494;-79
2021/06/10 11:31:11;;;;;;;3.80;2.60;;;29.60;99.90;;;;;;4994387;28;20427;-79
2021/06/10 11:33:37;;;;;;;5.67;2.73;;;30.00;99.90;;;;;;4994277;28;20437;-77
2021/06/10 11:36:05;;;;;;;2.80;2.50;;;29.20;99.90;;;;;;4994323;28;20974;-78
2021/06/10 11:38:37;;;;;;;6.03;2.40;;;29.10;99.90;;;;;;4994227;28;20415;-80
2021/06/10 11:41:11;;;;;;;8.90;3.33;;;28.60;99.90;;;;;;4994200;28;20472;-80
2021/06/10 11:43:42;;;;;;;3.57;2.47;;;29.10;99.90;;;;;;4993694;28;20502;-79
2021/06/10 11:46:10;;;;;;;3.70;2.60;;;29.70;99.90;;;;;;4992889;28;20418;-80
2021/06/10 11:48:40;;;;;;;2.57;2.37;;;30.10;99.90;;;;;;4994107;28;20427;-80
2021/06/10 11:51:21;;;;;;;3.07;2.80;;;29.70;99.90;;;;;;4993993;28;20422;-80
2021/06/10 11:53:47;;;;;;;5.03;2.40;;;29.70;99.90;;;;;;4993732;28;20449;-80
2021/06/10 11:56:13;;;;;;;5.90;2.30;;;30.10;99.90;;;;;;4993916;28;20422;-80
2021/06/10 11:58:38;;;;;;;3.80;2.80;;;29.90;99.90;;;;;;4992735;28;20951;-80
2021/06/10 12:01:12;;;;;;;6.67;2.77;;;29.90;99.90;;;;;;4976628;28;20434;-80
2021/06/10 12:03:39;;;;;;;4.00;2.63;;;30.40;99.90;;;;;;4993656;28;20242;-80
2021/06/10 12:06:07;;;;;;;2.63;2.40;;;30.70;99.90;;;;;;4993929;28;20498;-80
2021/06/10 12:08:35;;;;;;;2.50;2.30;;;30.10;99.90;;;;;;4994157;28;20505;-80
2021/06/10 12:11:03;;;;;;;2.80;2.10;;;30.60;99.90;;;;;;4992560;28;20486;-78
2021/06/10 12:13:40;;;;;;;4.10;2.27;;;31.50;99.90;;;;;;4992478;28;20446;-78
2021/06/10 12:16:19;;;;;;;2.33;1.90;;;31.40;99.90;;;;;;4992586;28;20784;-77
2021/06/10 12:18:48;;;;;;;4.13;2.20;;;31.50;99.90;;;;;;4992749;28;20419;-79
2021/06/10 12:21:23;;;;;;;2.77;2.57;;;31.60;99.90;;;;;;4992193;28;20450;-79
2021/06/10 12:23:50;;;;;;;3.03;2.27;;;31.10;97.80;;;;;;4992059;28;20480;-78
2021/06/10 12:26:18;;;;;;;3.87;2.20;;;30.50;99.30;;;;;;5008967;28;20426;-79
2021/06/10 12:28:49;;;;;;;2.93;2.10;;;31.50;99.90;;;;;;4993637;28;20407;-79
2021/06/10 12:31:24;;;;;;;2.23;2.03;;;31.10;97.80;;;;;;4993550;28;20417;-79
2021/06/10 12:33:54;;;;;;;2.87;2.10;;;30.80;98.20;;;;;;4993143;28;20492;-79
2021/06/10 12:36:33;;;;;;;3.30;1.63;;;30.60;96.60;;;;;;4993639;28;20422;-78
2021/06/10 12:39:09;;;;;;;6.10;2.13;;;30.90;95.90;;;;;;4993726;28;20421;-79
2021/06/10 12:41:49;;;;;;;2.70;2.17;;;31.10;97.60;;;;;;4993573;28;20445;-78
2021/06/10 12:44:27;;;;;;;2.40;1.93;;;31.40;97.30;;;;;;4993334;28;20462;-79
2021/06/10 12:46:53;;;;;;;3.77;2.00;;;31.70;95.00;;;;;;4993600;28;20481;-79
2021/06/10 12:49:38;;;;;;;2.60;2.40;;;32.30;92.60;;;;;;4993364;28;20487;-80
2021/06/10 12:52:16;;;;;;;3.07;2.53;;;31.70;94.30;;;;;;4993610;28;20171;-78
2021/06/10 12:54:43;;;;;;;2.67;2.07;;;31.70;91.90;;;;;;4995044;28;20793;-78
2021/06/10 12:57:27;;;;;;;2.43;2.23;;;31.90;91.30;;;;;;4997228;28;20413;-78
2021/06/10 12:59:58;;;;;;;3.03;1.97;;;31.90;91.10;;;;;;4997343;28;20418;-78
2021/06/10 13:02:25;;;;;;;3.63;1.90;;;31.70;92.70;;;;;;4997481;28;20402;-78
2021/06/10 13:04:58;;;;;;;7.57;2.50;;;31.80;91.90;;;;;;4996635;28;20468;-78
2021/06/10 13:07:33;;;;;;;2.40;1.87;;;32.40;90.00;;;;;;4997236;28;20445;-79
2021/06/10 13:10:01;;;;;;;3.87;2.20;;;32.60;91.20;;;;;;4997165;28;20440;-78
2021/06/10 13:12:31;;;;;;;5.20;2.40;;;32.80;90.90;;;;;;4995793;28;20757;-78
2021/06/10 13:15:15;;;;;;;2.60;2.33;;;32.60;88.20;;;;;;4995479;28;20525;-78
2021/06/10 13:17:49;;;;;;;7.00;2.77;;;32.20;85.30;;;;;;4996891;28;20410;-78
2021/06/10 13:20:35;;;;;;;4.80;2.13;;;32.60;88.70;;;;;;4996784;28;20527;-78
2021/06/10 13:23:01;;;;;;;3.00;2.27;;;33.00;88.60;;;;;;4996214;28;21010;-78
2021/06/10 13:25:27;;;;;;;2.63;2.20;;;31.20;88.90;;;;;;4996472;28;20433;-79
2021/06/10 13:28:16;;;;;;;3.60;2.67;;;31.00;91.00;;;;;;4996724;28;20423;-78
2021/06/10 13:30:44;;;;;;;2.53;2.20;;;31.10;88.40;;;;;;4996581;28;20164;-75
2021/06/10 13:33:10;;;;;;;4.17;2.73;;;31.40;90.20;;;;;;4996268;28;20410;-75
2021/06/10 13:35:40;;;;;;;4.30;2.30;;;31.70;89.90;;;;;;4996343;28;20490;-75
2021/06/10 13:38:08;;;;;;;3.00;2.20;;;31.60;85.60;;;;;;4996408;28;20433;-75
2021/06/10 13:40:34;;;;;;;2.67;1.90;;;31.90;83.20;;;;;;4996443;28;20472;-75
2021/06/10 13:42:59;;;;;;;4.53;2.30;;;32.70;86.80;;;;;;4996076;28;20937;-76
2021/06/10 13:45:29;;;;;;;5.70;2.27;;;32.70;84.40;;;;;;4996214;28;20548;-76
2021/06/10 13:47:54;;;;;;;2.33;1.87;;;32.60;79.90;;;;;;4996143;28;20206;-76
2021/06/10 13:50:20;;;;;;;3.57;1.93;;;32.50;78.40;;;;;;4994970;28;20785;-76
2021/06/10 13:52:45;;;;;;;2.90;2.23;;;32.40;76.30;;;;;;4995686;28;20234;-76
2021/06/10 13:55:11;;;;;;;3.47;2.07;;;32.30;80.20;;;;;;4996152;28;20203;-76
2021/06/10 13:57:37;;;;;;;5.50;1.90;;;32.60;78.70;;;;;;4996160;28;20668;-76
2021/06/10 14:00:03;;;;;;;1.97;1.80;;;32.50;73.50;;;;;;4997564;28;20171;-76
2021/06/10 14:02:29;;;;;;;2.80;1.87;;;32.60;72.70;;;;;;4996188;28;20709;-77
2021/06/10 14:04:55;;;;;;;2.50;1.70;;;32.80;70.50;;;;;;4995332;28;20498;-76
2021/06/10 14:07:21;;;;;;;2.80;1.83;;;33.30;70.60;;;;;;4995328;28;20259;-77
2021/06/10 14:09:46;;;;;;;2.50;1.80;;;33.70;72.40;;;;;;4996019;28;20946;-76
2021/06/10 14:12:12;;;;;;;3.50;1.80;;;34.10;74.10;;;;;;4995725;28;20271;-76
2021/06/10 14:14:38;;;;;;;3.33;2.20;;;33.20;72.70;;;;;;4995442;28;20663;-75
2021/06/10 14:17:04;;;;;;;2.97;1.90;;;31.90;77.00;;;;;;4995848;28;20191;-75
2021/06/10 14:19:30;;;;;;;2.67;1.83;;;32.50;73.50;;;;;;4995797;28;20423;-76
2021/06/10 14:21:55;;;;;;;3.07;1.90;;;33.20;72.90;;;;;;4995634;28;20187;-75
2021/06/10 14:24:21;;;;;;;3.73;2.20;;;33.00;75.90;;;;;;4986572;28;20219;-75
2021/06/10 14:26:47;;;;;;;2.10;1.90;;;32.10;73.80;;;;;;4976357;28;20176;-75
2021/06/10 14:29:27;;;;;;;3.47;2.87;;;32.10;76.30;;;;;;4976282;28;20168;-75
2021/06/10 14:34:20;;;;;;;2.63;1.80;;;32.00;76.00;;;;;;4975683;28;20534;-75
2021/06/10 14:36:46;;;;;;;4.27;1.80;;;32.20;77.30;;;;;;4976033;28;20188;-75
2021/06/10 14:39:12;;;;;;;1.60;1.50;;;32.60;75.30;;;;;;4975929;28;20856;-75
2021/06/10 14:41:38;;;;;;;4.63;1.93;;;32.20;76.20;;;;;;4975933;28;20411;-75
2021/06/10 14:44:05;;;;;;;2.07;1.80;;;32.80;76.90;;;;;;4975355;28;20467;-76
2021/06/10 14:46:30;;;;;;;5.23;2.03;;;32.30;80.40;;;;;;4975726;28;20408;-75
2021/06/10 14:48:56;;;;;;;3.20;2.33;;;32.50;83.90;;;;;;4976082;28;20426;-75
2021/06/10 14:51:22;;;;;;;2.90;1.90;;;31.50;83.70;;;;;;4975767;28;20227;-75
2021/06/10 14:53:47;;;;;;;7.93;2.37;;;31.40;83.90;;;;;;4975276;28;20204;-75
2021/06/10 14:56:13;;;;;;;3.50;1.97;;;31.60;84.90;;;;;;4975604;28;20254;-76
2021/06/10 14:58:39;;;;;;;2.13;1.80;;;31.00;84.20;;;;;;4975415;28;20184;-76
2021/06/10 15:01:05;;;;;;;3.00;2.30;;;31.40;85.40;;;;;;4975622;28;20427;-75
2021/06/10 15:03:31;;;;;;;2.70;2.03;;;32.40;86.10;;;;;;4975022;28;20279;-76
2021/06/10 15:05:57;;;;;;;2.40;2.07;;;32.20;88.20;;;;;;4975548;28;20907;-75
2021/06/10 15:08:23;;;;;;;4.13;2.20;;;31.90;88.40;;;;;;4975728;28;20541;-76
2021/06/10 15:10:48;;;;;;;3.80;2.13;;;32.30;92.90;;;;;;4975312;28;20434;-75
2021/06/10 15:13:14;;;;;;;3.03;2.07;;;33.10;89.50;;;;;;4975268;28;20192;-76
2021/06/10 15:15:40;;;;;;;4.83;2.30;;;32.60;85.20;;;;;;4975155;28;20262;-76
2021/06/10 15:18:06;;;;;;;2.60;2.17;;;32.40;85.40;;;;;;4975013;28;20181;-75
2021/06/10 15:20:31;;;;;;;2.83;2.20;;;31.60;85.00;;;;;;4973814;28;20212;-76
2021/06/10 15:22:57;;;;;;;3.67;2.20;;;32.20;86.30;;;;;;4974846;28;20533;-76
2021/06/10 15:25:23;;;;;;;7.53;2.40;;;32.00;83.40;;;;;;4974782;28;20231;-76
2021/06/10 15:27:48;;;;;;;2.53;2.00;;;32.50;86.40;;;;;;4974980;28;20184;-76
2021/06/10 15:30:15;;;;;;;3.13;2.77;;;32.50;84.80;;;;;;4975347;28;20184;-76
2021/06/10 15:32:40;;;;;;;6.30;1.90;;;32.20;84.60;;;;;;4974811;28;20440;-76
2021/06/10 15:35:07;;;;;;;6.73;2.37;;;32.30;86.70;;;;;;4974905;28;20835;-75
2021/06/10 15:37:32;;;;;;;2.60;2.30;;;31.20;87.00;;;;;;4973718;28;20184;-75
2021/06/10 15:39:58;;;;;;;2.37;2.17;;;31.70;84.60;;;;;;4975099;28;20427;-75
2021/06/10 15:42:24;;;;;;;7.03;2.60;;;32.30;89.10;;;;;;4974930;28;20188;-75
2021/06/10 15:44:50;;;;;;;6.90;2.87;;;31.70;89.20;;;;;;4974454;28;20709;-75
2021/06/10 15:47:24;;;;;;;3.90;2.53;;;31.10;89.70;;;;;;4975106;28;20566;-76
2021/06/10 15:49:50;;;;;;;2.60;2.40;;;31.30;90.40;;;;;;4973886;28;20213;-75
2021/06/10 15:52:16;;;;;;;2.43;2.13;;;31.30;91.30;;;;;;4974820;28;20888;-75
2021/06/10 15:54:41;;;;;;;3.53;2.30;;;31.40;90.60;;;;;;4974023;28;20545;-75
2021/06/10 15:57:07;;;;;;;5.67;2.60;;;31.90;88.90;;;;;;4974439;28;20279;-75
2021/06/10 15:59:33;;;;;;;4.17;2.30;;;32.10;90.30;;;;;;4973618;28;20231;-76
2021/06/10 16:01:59;;;;;;;2.80;2.50;;;32.00;90.40;;;;;;4974389;28;20235;-75
2021/06/10 16:04:24;;;;;;;6.03;2.50;;;31.60;90.90;;;;;;4974402;28;20215;-75
2021/06/10 16:06:51;;;;;;;2.83;2.63;;;31.50;90.80;;;;;;4974366;28;20935;-78
2021/06/10 16:09:18;;;;;;;3.50;2.47;;;31.40;89.90;;;;;;4974196;28;20188;-75
2021/06/10 16:11:44;;;;;;;2.93;2.27;;;32.00;90.10;;;;;;4974719;28;20753;-75
2021/06/10 16:14:10;;;;;;;4.87;2.87;;;31.60;90.10;;;;;;4973964;28;20454;-75
2021/06/10 16:16:35;;;;;;;2.60;2.40;;;31.40;89.10;;;;;;4960199;28;20184;-75
2021/06/10 16:19:01;;;;;;;2.53;2.33;;;31.30;90.40;;;;;;4966570;28;20665;-76
2021/06/10 16:21:26;;;;;;;6.13;2.47;;;31.50;91.20;;;;;;4965149;28;20287;-75
2021/06/10 16:23:52;;;;;;;3.50;2.57;;;32.10;90.20;;;;;;4962557;28;20212;-75
2021/06/10 16:26:17;;;;;;;2.60;2.40;;;32.00;89.80;;;;;;4966035;28;20188;-76
2021/06/10 16:28:43;;;;;;;4.67;3.27;;;31.10;91.20;;;;;;4960558;28;20554;-75
2021/06/10 16:31:09;;;;;;;5.43;3.60;;;30.60;90.90;;;;;;4973377;28;20192;-76
2021/06/10 16:33:34;;;;;;;3.93;2.50;;;30.80;89.80;;;;;;4976804;28;20208;-75
2021/06/10 16:36:00;;;;;;;2.80;2.60;;;30.90;90.10;;;;;;4978166;28;20188;-75
2021/06/10 16:38:26;;;;;;;3.90;2.90;;;30.80;90.60;;;;;;4976893;28;20191;-75
2021/06/10 16:40:56;;;;;;;3.27;2.57;;;31.50;90.70;;;;;;4978225;28;20645;-76
2021/06/10 16:43:22;;;;;;;2.40;2.20;;;31.70;90.80;;;;;;4971657;28;20471;-75
2021/06/10 16:45:48;;;;;;;2.70;2.27;;;31.50;89.40;;;;;;4958726;29;20781;-75
2021/06/10 16:48:13;;;;;;;2.80;2.10;;;31.70;88.90;;;;;;4958633;28;20428;-75
2021/06/10 16:50:39;;;;;;;2.30;2.07;;;31.90;88.50;;;;;;4958425;28;20205;-75
2021/06/10 16:53:05;;;;;;;5.33;2.73;;;31.80;89.90;;;;;;4958318;28;20193;-75
2021/06/10 16:55:31;;;;;;;3.30;2.40;;;31.50;90.10;;;;;;4958541;28;20308;-75
2021/06/10 16:57:56;;;;;;;2.90;2.50;;;31.70;88.70;;;;;;4958491;28;20177;-75
2021/06/10 17:00:31;;;;;;;2.97;2.67;;;31.40;88.00;;;;;;4958367;28;20452;-75
2021/06/10 17:05:26;;;;;;;3.90;2.43;;;31.30;88.60;;;;;;4958067;28;20511;-75
2021/06/10 17:07:52;;;;;;;5.27;2.60;;;31.00;90.00;;;;;;4958301;29;20176;-75
2021/06/10 17:10:18;;;;;;;5.70;2.40;;;30.70;90.30;;;;;;4973999;28;20427;-74
2021/06/10 17:12:44;;;;;;;2.30;2.10;;;30.70;87.70;;;;;;4977583;28;20415;-75